Time;durP1;ratioP1;P1;durP2;ratioP2;P2;SDS_P1;SDS_P2;PMS_P1;PMS_P2;Temp;Humidity;BMP_temperature;BMP_pressure;BME280_temperature;BME280_humidity;BME280_pressure;Samples;Min_cycle;Max_cycle;Signal;HPM_P1;HPM_P2
2022/11/05 00:09:40;;;;;;;;;;;6.10;99.90;;;;;;5067840;28;19973;-76
2022/11/05 00:17:36;;;;;;;;;;;6.10;99.90;;;;;;5069261;28;20099;-76
2022/11/05 00:20:01;;;;;;;;;;;6.00;99.90;;;;;;5067903;28;20007;-76
2022/11/05 00:25:17;;;;;;;;;;;6.00;99.90;;;;;;5068928;28;20378;-76
2022/11/05 00:27:50;;;;;;;;;;;6.00;99.90;;;;;;5066677;28;19920;-75
2022/11/05 00:30:20;;;;;;;;;;;5.90;99.90;;;;;;5056581;28;19923;-75
2022/11/05 00:32:47;;;;;;;;;;;5.90;99.90;;;;;;5065875;28;19916;-74
2022/11/05 00:35:13;;;;;;;;;;;5.80;99.90;;;;;;5066446;28;19989;-75
2022/11/05 00:37:38;;;;;;;;;;;5.80;99.90;;;;;;5064165;28;19912;-75
2022/11/05 00:40:04;;;;;;;;;;;5.80;99.90;;;;;;5067368;28;20470;-75
2022/11/05 00:45:14;;;;;;;;;;;5.80;99.90;;;;;;5065111;28;19928;-76
2022/11/05 00:50:24;;;;;;;;;;;5.50;99.90;;;;;;5061673;28;20754;-75
2022/11/05 00:52:54;;;;;;;;;;;5.50;99.90;;;;;;5067968;28;19917;-75
2022/11/05 00:55:52;;;;;;;;;;;5.50;99.90;;;;;;5068279;28;19973;-75
2022/11/05 00:58:18;;;;;;;;;;;5.60;99.90;;;;;;5036186;28;19916;-75
2022/11/05 01:00:47;;;;;;;;;;;5.50;99.90;;;;;;5063914;28;19917;-74
2022/11/05 01:03:14;;;;;;;;;;;5.50;99.90;;;;;;5066097;28;19929;-75
2022/11/05 01:05:42;;;;;;;;;;;5.50;99.90;;;;;;5069733;28;19924;-75
2022/11/05 01:08:09;;;;;;;;;;;5.50;99.90;;;;;;5063082;28;20592;-75
2022/11/05 01:10:39;;;;;;;;;;;5.50;99.90;;;;;;5066920;28;19920;-75
2022/11/05 01:13:05;;;;;;;;;;;5.60;99.90;;;;;;5065951;28;19939;-75
2022/11/05 01:15:30;;;;;;;;;;;5.40;99.90;;;;;;5067804;28;20612;-75
2022/11/05 01:17:56;;;;;;;;;;;5.40;99.90;;;;;;5066208;28;19994;-75
2022/11/05 01:20:21;;;;;;;;;;;5.40;99.90;;;;;;5072670;28;20023;-74
2022/11/05 01:22:47;;;;;;;;;;;5.30;99.90;;;;;;5067606;28;19917;-74
2022/11/05 01:25:12;;;;;;;;;;;5.20;99.90;;;;;;5056384;28;20835;-74
2022/11/05 01:27:38;;;;;;;;;;;5.30;99.90;;;;;;5068091;28;20375;-74
2022/11/05 01:30:05;;;;;;;;;;;5.20;99.90;;;;;;5067924;28;19917;-74
2022/11/05 01:32:30;;;;;;;;;;;5.10;99.90;;;;;;5068568;28;19916;-74
2022/11/05 01:34:56;;;;;;;;;;;5.20;99.90;;;;;;5066086;28;19916;-74
2022/11/05 01:37:21;;;;;;;;;;;5.10;99.90;;;;;;5060952;28;19920;-73
2022/11/05 01:39:47;;;;;;;;;;;5.10;99.90;;;;;;5067836;28;19917;-74
2022/11/05 01:42:23;;;;;;;;;;;5.20;99.90;;;;;;5064285;28;19922;-75
2022/11/05 01:44:48;;;;;;;;;;;5.20;99.90;;;;;;5066183;28;20539;-75
2022/11/05 01:47:20;;;;;;;;;;;5.30;99.90;;;;;;5062946;28;19924;-74
2022/11/05 01:49:45;;;;;;;;;;;5.30;99.90;;;;;;5065889;28;19999;-74
2022/11/05 01:52:11;;;;;;;;;;;5.30;99.90;;;;;;5070345;28;20015;-74
2022/11/05 01:54:36;;;;;;;;;;;5.30;99.90;;;;;;5071530;28;20013;-74
2022/11/05 01:57:04;;;;;;;;;;;5.30;99.90;;;;;;5072944;28;19977;-74
2022/11/05 01:59:50;;;;;;;;;;;5.20;99.90;;;;;;5071044;28;20098;-74
2022/11/05 02:02:16;;;;;;;;;;;5.10;99.90;;;;;;5067949;28;19913;-74
2022/11/05 02:04:43;;;;;;;;;;;4.90;99.90;;;;;;5069355;28;19925;-74
2022/11/05 02:07:09;;;;;;;;;;;4.90;99.90;;;;;;5071357;28;19926;-74
2022/11/05 02:09:43;;;;;;;;;;;4.90;99.90;;;;;;5071673;28;19965;-74
2022/11/05 02:12:09;;;;;;;;;;;5.00;99.90;;;;;;5069100;28;19916;-74
2022/11/05 02:14:35;;;;;;;;;;;5.00;99.90;;;;;;5071220;28;20647;-73
2022/11/05 02:17:07;;;;;;;;;;;5.10;99.90;;;;;;5070685;28;20640;-74
2022/11/05 02:19:51;;;;;;;;;;;5.00;99.90;;;;;;5064375;28;19921;-74
2022/11/05 02:22:35;;;;;;;;;;;4.90;99.90;;;;;;5065146;28;19920;-73
2022/11/05 02:25:04;;;;;;;;;;;4.80;99.90;;;;;;5069918;28;19916;-73
2022/11/05 02:27:49;;;;;;;;;;;4.80;99.90;;;;;;5071219;28;20011;-73
2022/11/05 02:30:23;;;;;;;;;;;4.80;99.90;;;;;;5054526;28;19924;-74
2022/11/05 02:32:54;;;;;;;;;;;4.80;99.90;;;;;;5070685;28;19916;-74
2022/11/05 02:35:31;;;;;;;;;;;4.80;99.90;;;;;;5066152;28;19943;-74
2022/11/05 02:38:03;;;;;;;;;;;4.80;99.90;;;;;;5069391;28;19916;-75
2022/11/05 02:40:39;;;;;;;;;;;4.90;99.90;;;;;;5069441;28;19916;-75
2022/11/05 02:43:15;;;;;;;;;;;4.90;99.90;;;;;;5070439;28;19966;-74
2022/11/05 02:46:02;;;;;;;;;;;5.00;99.90;;;;;;5069379;28;19927;-75
2022/11/05 02:48:34;;;;;;;;;;;5.00;99.90;;;;;;5069889;28;19917;-74
2022/11/05 02:51:19;;;;;;;;;;;4.90;99.90;;;;;;5069254;28;19916;-75
2022/11/05 02:54:08;;;;;;;;;;;5.00;99.90;;;;;;5062375;28;19923;-75
2022/11/05 02:56:42;;;;;;;;;;;4.80;99.90;;;;;;5065237;28;20027;-75
2022/11/05 02:59:08;;;;;;;;;;;4.80;99.90;;;;;;5070586;28;19927;-75
2022/11/05 03:01:35;;;;;;;;;;;4.80;99.90;;;;;;5067339;28;19916;-75
2022/11/05 03:04:03;;;;;;;;;;;4.80;99.90;;;;;;5067289;28;19916;-75
2022/11/05 03:06:34;;;;;;;;;;;4.80;99.90;;;;;;5056544;28;19924;-75
2022/11/05 03:09:09;;;;;;;;;;;4.70;99.90;;;;;;5070363;28;20303;-75
2022/11/05 03:11:40;;;;;;;;;;;4.60;99.90;;;;;;5067049;28;20066;-74
2022/11/05 03:14:13;;;;;;;;;;;4.60;99.90;;;;;;5065798;28;20374;-75
2022/11/05 03:16:41;;;;;;;;;;;4.60;99.90;;;;;;5066108;28;19916;-74
2022/11/05 03:19:09;;;;;;;;;;;4.60;99.90;;;;;;5069662;28;19913;-75
2022/11/05 03:21:44;;;;;;;;;;;4.60;99.90;;;;;;5070335;28;20540;-75
2022/11/05 03:24:19;;;;;;;;;;;4.60;99.90;;;;;;5061453;28;20017;-75
2022/11/05 03:26:51;;;;;;;;;;;4.50;99.90;;;;;;5067538;28;19963;-75
2022/11/05 03:29:22;;;;;;;;;;;4.50;99.90;;;;;;5069562;28;19917;-76
2022/11/05 03:31:49;;;;;;;;;;;4.60;99.90;;;;;;5069753;28;20307;-76
2022/11/05 03:34:16;;;;;;;;;;;4.60;99.90;;;;;;5069671;28;19916;-76
2022/11/05 03:36:45;;;;;;;;;;;4.50;99.90;;;;;;5067273;28;19922;-75
2022/11/05 03:39:16;;;;;;;;;;;4.40;99.90;;;;;;5069456;28;19917;-74
2022/11/05 03:41:42;;;;;;;;;;;4.40;99.90;;;;;;5067105;28;19923;-75
2022/11/05 03:44:11;;;;;;;;;;;4.40;99.90;;;;;;5062722;28;19917;-74
2022/11/05 03:46:48;;;;;;;;;;;4.40;99.90;;;;;;5062645;28;19975;-74
2022/11/05 03:49:18;;;;;;;;;;;4.40;99.90;;;;;;5055029;28;19963;-74
2022/11/05 03:52:02;;;;;;;;;;;4.40;99.90;;;;;;5068687;28;19916;-75
2022/11/05 03:54:28;;;;;;;;;;;4.40;99.90;;;;;;5068670;28;19999;-76
2022/11/05 03:56:53;;;;;;;;;;;4.30;99.90;;;;;;5061794;28;20473;-75
2022/11/05 03:59:19;;;;;;;;;;;4.30;99.90;;;;;;5067628;28;19940;-76
2022/11/05 04:01:44;;;;;;;;;;;4.30;99.90;;;;;;5068017;28;20340;-75
2022/11/05 04:04:10;;;;;;;;;;;4.20;99.90;;;;;;5065777;28;20299;-75
2022/11/05 04:14:48;;;;;;;;;;;4.20;99.90;;;;;;5067325;28;19927;-75
2022/11/05 04:17:14;;;;;;;;;;;4.20;99.90;;;;;;5067519;28;19920;-75
2022/11/05 04:25:10;;;;;;;;;;;4.00;99.90;;;;;;5068024;28;19923;-75
2022/11/05 04:27:36;;;;;;;;;;;3.90;99.90;;;;;;5068625;28;19920;-75
2022/11/05 04:30:17;;;;;;;;;;;3.70;99.90;;;;;;5066196;28;19924;-74
2022/11/05 04:32:54;;;;;;;;;;;3.50;99.90;;;;;;5067699;28;19927;-75
2022/11/05 04:35:20;;;;;;;;;;;3.40;99.90;;;;;;5068321;28;20489;-75
2022/11/05 04:37:45;;;;;;;;;;;3.40;99.90;;;;;;5065160;28;19912;-75
2022/11/05 04:40:11;;;;;;;;;;;3.40;99.90;;;;;;5068031;28;19916;-74
2022/11/05 04:42:36;;;;;;;;;;;3.30;99.90;;;;;;5068657;28;20481;-74
2022/11/05 04:45:02;;;;;;;;;;;3.40;99.90;;;;;;5064518;28;20398;-75
2022/11/05 04:47:27;;;;;;;;;;;3.40;99.90;;;;;;5058599;28;19921;-75
2022/11/05 04:49:53;;;;;;;;;;;3.30;99.90;;;;;;5064808;28;19986;-74
2022/11/05 04:52:18;;;;;;;;;;;3.40;99.90;;;;;;5073887;28;19917;-75
2022/11/05 04:54:44;;;;;;;;;;;3.30;99.90;;;;;;5066860;28;19978;-75
2022/11/05 04:57:09;;;;;;;;;;;3.50;99.90;;;;;;5067832;28;19942;-75
2022/11/05 04:59:35;;;;;;;;;;;3.50;99.90;;;;;;5067397;28;19923;-75
2022/11/05 05:02:00;;;;;;;;;;;3.60;99.90;;;;;;5069085;28;19917;-75
2022/11/05 05:04:26;;;;;;;;;;;3.60;99.90;;;;;;5064656;28;19925;-75
2022/11/05 05:06:51;;;;;;;;;;;3.60;99.90;;;;;;5068207;28;19920;-75
2022/11/05 05:09:17;;;;;;;;;;;3.50;99.90;;;;;;5065782;28;20506;-75
2022/11/05 05:11:42;;;;;;;;;;;3.50;99.90;;;;;;5066664;28;19973;-75
2022/11/05 05:14:08;;;;;;;;;;;3.40;99.90;;;;;;5068125;28;19957;-74
2022/11/05 05:16:33;;;;;;;;;;;3.30;99.90;;;;;;5067864;28;19916;-75
2022/11/05 05:18:59;;;;;;;;;;;3.20;99.90;;;;;;5078408;28;19912;-75
2022/11/05 05:21:40;;;;;;;;;;;3.30;99.90;;;;;;5059474;28;19913;-74
2022/11/05 05:24:13;;;;;;;;;;;3.50;99.90;;;;;;5066663;28;20308;-74
2022/11/05 05:26:40;;;;;;;;;;;3.50;99.90;;;;;;5068554;28;19917;-74
2022/11/05 05:29:06;;;;;;;;;;;3.60;99.90;;;;;;5068156;28;19978;-75
2022/11/05 05:31:31;;;;;;;;;;;3.60;99.90;;;;;;5058448;28;19912;-73
2022/11/05 05:33:57;;;;;;;;;;;3.40;99.90;;;;;;5068216;28;19969;-75
2022/11/05 05:36:23;;;;;;;;;;;3.30;99.90;;;;;;5066427;28;19955;-74
2022/11/05 05:38:48;;;;;;;;;;;3.50;99.90;;;;;;5060202;28;19924;-75
2022/11/05 05:41:14;;;;;;;;;;;3.40;99.90;;;;;;5067144;28;20095;-74
2022/11/05 05:43:40;;;;;;;;;;;3.40;99.90;;;;;;5066494;28;19927;-74
2022/11/05 05:46:06;;;;;;;;;;;3.30;99.90;;;;;;5052698;28;20307;-74
2022/11/05 05:48:32;;;;;;;;;;;3.30;99.90;;;;;;5059698;28;20253;-74
2022/11/05 05:51:01;;;;;;;;;;;3.10;99.90;;;;;;5062793;28;19916;-74
2022/11/05 05:53:27;;;;;;;;;;;3.10;99.90;;;;;;5059346;28;19916;-75
2022/11/05 05:55:54;;;;;;;;;;;3.20;99.90;;;;;;5065666;28;19921;-75
2022/11/05 05:58:19;;;;;;;;;;;3.20;99.90;;;;;;5067653;28;19952;-75
2022/11/05 06:00:45;;;;;;;;;;;3.10;99.90;;;;;;5067445;28;19968;-75
2022/11/05 06:03:10;;;;;;;;;;;3.10;99.90;;;;;;5065898;28;20006;-74
2022/11/05 06:05:36;;;;;;;;;;;3.20;99.90;;;;;;5058631;28;19930;-75
2022/11/05 06:08:01;;;;;;;;;;;3.30;99.90;;;;;;5067166;28;19920;-76
2022/11/05 06:10:27;;;;;;;;;;;3.40;99.90;;;;;;5066469;28;19916;-75
2022/11/05 06:12:52;;;;;;;;;;;3.30;99.90;;;;;;5066562;28;19948;-75
2022/11/05 06:15:18;;;;;;;;;;;3.30;99.90;;;;;;5067520;28;19999;-73
2022/11/05 06:17:43;;;;;;;;;;;3.30;99.90;;;;;;5067216;28;19951;-74
2022/11/05 06:20:09;;;;;;;;;;;3.40;99.90;;;;;;5067387;28;19917;-74
2022/11/05 06:22:35;;;;;;;;;;;3.40;99.90;;;;;;5067028;28;20965;-74
2022/11/05 06:25:00;;;;;;;;;;;3.40;99.90;;;;;;5066433;28;19943;-74
2022/11/05 06:27:27;;;;;;;;;;;3.50;99.90;;;;;;5064637;28;19921;-74
2022/11/05 06:29:52;;;;;;;;;;;3.40;99.90;;;;;;5067141;28;19928;-74
2022/11/05 06:32:18;;;;;;;;;;;3.50;99.90;;;;;;5065077;28;19993;-74
2022/11/05 06:34:43;;;;;;;;;;;3.30;99.90;;;;;;5059658;28;20019;-77
2022/11/05 06:37:09;;;;;;;;;;;3.30;99.90;;;;;;5068438;28;20035;-77
2022/11/05 06:39:35;;;;;;;;;;;3.40;99.90;;;;;;5070408;28;19965;-77
2022/11/05 06:42:01;;;;;;;;;;;3.40;99.90;;;;;;5069248;28;19923;-79
2022/11/05 06:44:26;;;;;;;;;;;3.40;99.90;;;;;;5068357;28;19916;-77
2022/11/05 06:46:52;;;;;;;;;;;3.40;99.90;;;;;;5063697;28;19920;-76
2022/11/05 06:49:17;;;;;;;;;;;3.40;99.90;;;;;;5069222;28;20288;-77
2022/11/05 06:51:43;;;;;;;;;;;3.30;99.90;;;;;;5070091;28;20699;-77
2022/11/05 06:54:08;;;;;;;;;;;3.30;99.90;;;;;;5069024;28;20025;-77
2022/11/05 06:56:34;;;;;;;;;;;3.50;99.90;;;;;;5064328;28;19970;-78
2022/11/05 06:59:00;;;;;;;;;;;3.40;99.90;;;;;;5068213;28;19947;-78
2022/11/05 07:01:25;;;;;;;;;;;3.40;99.90;;;;;;5070487;28;19916;-76
2022/11/05 07:03:51;;;;;;;;;;;3.50;99.90;;;;;;5070086;28;19916;-77
2022/11/05 07:06:16;;;;;;;;;;;3.60;99.90;;;;;;5068814;28;20787;-77
2022/11/05 07:08:42;;;;;;;;;;;3.80;99.90;;;;;;5061512;28;19916;-78
2022/11/05 07:11:07;;;;;;;;;;;4.00;99.90;;;;;;5070026;28;19922;-78
2022/11/05 07:13:33;;;;;;;;;;;4.10;99.90;;;;;;5069799;28;19980;-77
2022/11/05 07:15:58;;;;;;;;;;;4.50;99.90;;;;;;5062490;28;20003;-78
2022/11/05 07:18:24;;;;;;;;;;;4.90;99.90;;;;;;5076149;28;20008;-78
2022/11/05 07:20:50;;;;;;;;;;;5.40;99.90;;;;;;5071328;28;19912;-78
2022/11/05 07:23:15;;;;;;;;;;;5.50;99.90;;;;;;5071615;28;20011;-79
2022/11/05 07:25:41;;;;;;;;;;;5.50;99.90;;;;;;5069780;28;19917;-78
2022/11/05 07:28:07;;;;;;;;;;;5.00;99.90;;;;;;5069161;28;19932;-77
2022/11/05 07:30:33;;;;;;;;;;;4.90;99.90;;;;;;5056649;28;20792;-76
2022/11/05 07:32:59;;;;;;;;;;;4.70;99.90;;;;;;5055641;28;19916;-77
2022/11/05 07:35:25;;;;;;;;;;;4.70;99.90;;;;;;5056239;28;19924;-76
2022/11/05 07:37:52;;;;;;;;;;;4.80;99.90;;;;;;5067270;28;20376;-76
2022/11/05 07:40:18;;;;;;;;;;;5.00;99.90;;;;;;5073128;28;19917;-76
2022/11/05 07:42:48;;;;;;;;;;;5.10;99.90;;;;;;5069290;28;19923;-76
2022/11/05 07:48:17;;;;;;;;;;;5.00;99.90;;;;;;5053032;28;20553;-77
2022/11/05 07:50:42;;;;;;;;;;;5.10;99.90;;;;;;5090414;27;19921;-76
2022/11/05 07:53:12;;;;;;;;;;;5.40;99.90;;;;;;5091295;28;19920;-76
2022/11/05 07:55:41;;;;;;;;;;;5.20;99.90;;;;;;5061904;28;19923;-77
2022/11/05 07:58:08;;;;;;;;;;;5.40;99.90;;;;;;5068541;28;19917;-77
2022/11/05 08:00:33;;;;;;;;;;;5.40;99.90;;;;;;5069411;28;19999;-77
2022/11/05 08:03:06;;;;;;;;;;;5.30;99.90;;;;;;5068881;28;20003;-76
2022/11/05 08:05:33;;;;;;;;;;;5.50;99.90;;;;;;5065563;28;19977;-75
2022/11/05 08:07:59;;;;;;;;;;;5.40;99.90;;;;;;5069585;28;19927;-77
2022/11/05 08:10:25;;;;;;;;;;;5.40;99.90;;;;;;5057982;28;20682;-76
2022/11/05 08:12:54;;;;;;;;;;;5.40;99.90;;;;;;5061491;28;19916;-76
2022/11/05 08:15:20;;;;;;;;;;;5.60;99.90;;;;;;5068454;28;20451;-76
2022/11/05 08:17:46;;;;;;;;;;;5.50;99.90;;;;;;5057720;28;19916;-77
2022/11/05 08:20:12;;;;;;;;;;;5.50;99.90;;;;;;5063877;28;19970;-76
2022/11/05 08:22:44;;;;;;;;;;;5.50;99.90;;;;;;5051479;28;19995;-77
2022/11/05 08:25:12;;;;;;;;;;;5.50;99.90;;;;;;5050214;28;19920;-77
2022/11/05 08:27:38;;;;;;;;;;;5.60;99.90;;;;;;5056547;28;20015;-76
2022/11/05 08:30:04;;;;;;;;;;;5.70;99.90;;;;;;5059859;28;20008;-75
2022/11/05 08:32:30;;;;;;;;;;;6.10;99.90;;;;;;5061241;28;19916;-76
2022/11/05 08:34:55;;;;;;;;;;;6.00;99.90;;;;;;5058920;28;20350;-77
2022/11/05 08:37:21;;;;;;;;;;;6.50;99.90;;;;;;5055004;28;20657;-77
2022/11/05 08:39:47;;;;;;;;;;;6.90;99.90;;;;;;5068407;28;19955;-77
2022/11/05 08:42:12;;;;;;;;;;;7.10;99.90;;;;;;5068231;28;19979;-76
2022/11/05 08:44:38;;;;;;;;;;;7.00;99.90;;;;;;5067761;28;19916;-77
2022/11/05 08:47:03;;;;;;;;;;;6.80;99.90;;;;;;5068319;28;20402;-76
2022/11/05 08:49:29;;;;;;;;;;;6.60;99.90;;;;;;5066881;28;19917;-76
2022/11/05 08:51:54;;;;;;;;;;;6.50;99.90;;;;;;5068849;28;19948;-76
2022/11/05 08:54:20;;;;;;;;;;;6.70;99.90;;;;;;5056355;28;20400;-76
2022/11/05 08:56:45;;;;;;;;;;;6.70;99.90;;;;;;5068130;28;20692;-76
2022/11/05 08:59:11;;;;;;;;;;;6.50;99.90;;;;;;5067073;28;20381;-76
2022/11/05 09:01:36;;;;;;;;;;;6.70;99.90;;;;;;5058717;28;19924;-76
2022/11/05 09:04:02;;;;;;;;;;;7.20;99.90;;;;;;5064650;28;19917;-77
2022/11/05 09:06:28;;;;;;;;;;;7.40;99.90;;;;;;5058024;28;19970;-76
2022/11/05 09:08:53;;;;;;;;;;;7.50;99.90;;;;;;5057001;28;19919;-77
2022/11/05 09:11:19;;;;;;;;;;;7.40;99.90;;;;;;5054999;28;20011;-77
2022/11/05 09:13:44;;;;;;;;;;;7.50;99.90;;;;;;5060515;28;19959;-77
2022/11/05 09:16:20;;;;;;;;;;;7.70;99.90;;;;;;5064591;28;20424;-77
2022/11/05 09:18:46;;;;;;;;;;;8.60;99.90;;;;;;5060816;28;19959;-76
2022/11/05 09:21:12;;;;;;;;;;;9.10;99.90;;;;;;5060351;28;19959;-77
2022/11/05 09:23:37;;;;;;;;;;;8.20;99.90;;;;;;5066330;28;20518;-77
2022/11/05 09:26:03;;;;;;;;;;;8.20;99.90;;;;;;5060512;28;19916;-76
2022/11/05 09:28:30;;;;;;;;;;;8.20;99.90;;;;;;5062980;28;19924;-76
2022/11/05 09:30:56;;;;;;;;;;;8.20;99.90;;;;;;5064381;28;19964;-76
2022/11/05 09:33:23;;;;;;;;;;;7.70;99.90;;;;;;5060005;28;19955;-76
2022/11/05 09:35:48;;;;;;;;;;;8.00;99.90;;;;;;5067594;28;19913;-76
2022/11/05 09:38:14;;;;;;;;;;;8.20;99.90;;;;;;5067503;28;19923;-76
2022/11/05 09:40:59;;;;;;;;;;;8.40;99.90;;;;;;5061198;28;19944;-76
2022/11/05 09:43:29;;;;;;;;;;;8.50;99.90;;;;;;5068085;28;19960;-76
2022/11/05 09:45:56;;;;;;;;;;;8.10;99.90;;;;;;5058524;28;19913;-77
2022/11/05 09:48:24;;;;;;;;;;;7.80;99.90;;;;;;5062189;28;19921;-77
2022/11/05 09:50:50;;;;;;;;;;;7.90;99.90;;;;;;5067363;28;20299;-76
2022/11/05 09:53:17;;;;;;;;;;;7.40;99.90;;;;;;5064639;28;19917;-76
2022/11/05 09:55:45;;;;;;;;;;;7.40;99.90;;;;;;5067393;28;19918;-76
2022/11/05 09:58:19;;;;;;;;;;;7.40;99.90;;;;;;5067581;28;19920;-76
2022/11/05 10:00:49;;;;;;;;;;;7.50;99.90;;;;;;5053459;28;19913;-76
2022/11/05 10:03:18;;;;;;;;;;;8.00;99.90;;;;;;5067466;28;19916;-76
2022/11/05 10:05:44;;;;;;;;;;;7.60;99.90;;;;;;5062336;28;19925;-77
2022/11/05 10:08:13;;;;;;;;;;;8.00;99.90;;;;;;5063391;28;19920;-77
2022/11/05 10:10:39;;;;;;;;;;;8.70;99.90;;;;;;5064775;28;19959;-77
2022/11/05 10:13:20;;;;;;;;;;;9.30;99.90;;;;;;5069487;28;20038;-77
2022/11/05 10:16:05;;;;;;;;;;;9.10;99.90;;;;;;5066014;28;20403;-76
2022/11/05 10:18:33;;;;;;;;;;;9.40;99.90;;;;;;5064704;28;19916;-77
2022/11/05 10:20:59;;;;;;;;;;;9.30;99.90;;;;;;5071040;28;19917;-75
2022/11/05 10:23:25;;;;;;;;;;;9.20;99.90;;;;;;5054130;28;19924;-75
2022/11/05 10:26:02;;;;;;;;;;;9.60;99.90;;;;;;5055396;28;19917;-75
2022/11/05 10:28:29;;;;;;;;;;;9.70;99.90;;;;;;5062173;28;20423;-76
2022/11/05 10:30:57;;;;;;;;;;;9.70;99.90;;;;;;5057295;28;19925;-76
2022/11/05 10:33:43;;;;;;;;;;;10.30;99.90;;;;;;5068953;28;20007;-76
2022/11/05 10:36:10;;;;;;;;;;;10.80;99.90;;;;;;5057185;28;19927;-75
2022/11/05 10:38:36;;;;;;;;;;;10.60;99.90;;;;;;5064692;28;19916;-75
2022/11/05 10:41:07;;;;;;;;;;;10.30;99.90;;;;;;5068978;28;19994;-74
2022/11/05 10:43:32;;;;;;;;;;;10.10;99.90;;;;;;5068173;28;19956;-74
2022/11/05 10:46:04;;;;;;;;;;;9.90;99.90;;;;;;5062370;28;20493;-75
2022/11/05 10:48:33;;;;;;;;;;;9.70;99.90;;;;;;5076160;28;19916;-75
2022/11/05 10:50:58;;;;;;;;;;;9.00;99.90;;;;;;5053006;28;19963;-75
2022/11/05 10:53:32;;;;;;;;;;;8.90;99.90;;;;;;5065245;28;19944;-76
2022/11/05 10:55:58;;;;;;;;;;;8.80;99.90;;;;;;5054212;28;19956;-76
2022/11/05 10:58:27;;;;;;;;;;;8.80;99.90;;;;;;5069174;28;19962;-77
2022/11/05 11:00:53;;;;;;;;;;;8.90;99.90;;;;;;5055396;28;19913;-76
2022/11/05 11:03:33;;;;;;;;;;;9.10;99.90;;;;;;5052007;28;19983;-76
2022/11/05 11:06:00;;;;;;;;;;;9.10;99.90;;;;;;5056904;28;20031;-76
2022/11/05 11:08:26;;;;;;;;;;;9.10;99.90;;;;;;5065665;28;20295;-76
2022/11/05 11:10:56;;;;;;;;;;;9.30;99.90;;;;;;5059064;28;19912;-76
2022/11/05 11:13:23;;;;;;;;;;;9.50;99.90;;;;;;5070189;28;19919;-76
2022/11/05 11:15:50;;;;;;;;;;;9.70;99.90;;;;;;5054603;28;19919;-77
2022/11/05 11:18:24;;;;;;;;;;;9.30;99.90;;;;;;5064283;28;19920;-76
2022/11/05 11:20:49;;;;;;;;;;;9.30;99.90;;;;;;5060714;28;19913;-76
2022/11/05 11:23:16;;;;;;;;;;;9.40;99.90;;;;;;5060476;28;19935;-76
2022/11/05 11:25:41;;;;;;;;;;;9.70;99.90;;;;;;5070743;28;19908;-76
2022/11/05 11:28:13;;;;;;;;;;;9.90;99.90;;;;;;5062029;28;20356;-76
2022/11/05 11:30:38;;;;;;;;;;;10.30;99.90;;;;;;5058440;28;19913;-76
2022/11/05 11:33:06;;;;;;;;;;;10.60;99.90;;;;;;5059176;28;19919;-76
2022/11/05 11:35:34;;;;;;;;;;;10.60;99.90;;;;;;5057842;28;20437;-76
2022/11/05 11:38:00;;;;;;;;;;;10.90;99.90;;;;;;5058878;28;19912;-76
2022/11/05 11:40:30;;;;;;;;;;;11.20;99.90;;;;;;5063099;28;21522;-76
2022/11/05 11:42:57;;;;;;;;;;;11.10;99.90;;;;;;5062777;28;19917;-77
2022/11/05 11:45:28;;;;;;;;;;;11.20;99.90;;;;;;5065114;28;19924;-76
2022/11/05 11:47:54;;;;;;;;;;;10.90;99.90;;;;;;5063482;28;19961;-77
2022/11/05 11:50:37;;;;;;;;;;;11.10;99.90;;;;;;5069976;28;19970;-77
2022/11/05 11:53:18;;;;;;;;;;;11.40;99.90;;;;;;5067245;28;20343;-76
2022/11/05 11:56:02;;;;;;;;;;;11.50;99.90;;;;;;5069046;28;19912;-76
2022/11/05 11:58:36;;;;;;;;;;;11.20;99.90;;;;;;5092573;28;19967;-76
2022/11/05 12:01:05;;;;;;;;;;;11.20;99.90;;;;;;5069008;28;19912;-76
2022/11/05 12:03:40;;;;;;;;;;;11.40;99.90;;;;;;5069155;28;19994;-76
2022/11/05 12:06:13;;;;;;;;;;;11.60;99.90;;;;;;5065790;28;20650;-76
2022/11/05 12:08:49;;;;;;;;;;;11.70;99.90;;;;;;5067318;28;19923;-76
2022/11/05 12:11:28;;;;;;;;;;;11.80;99.90;;;;;;5068073;28;19913;-76
2022/11/05 12:14:03;;;;;;;;;;;11.90;99.90;;;;;;5068889;28;19918;-76
2022/11/05 12:16:36;;;;;;;;;;;11.80;99.90;;;;;;5068021;28;19921;-76
2022/11/05 12:19:01;;;;;;;;;;;11.60;99.90;;;;;;5066973;28;19955;-76
2022/11/05 12:21:36;;;;;;;;;;;11.60;99.90;;;;;;5068865;28;19913;-76
2022/11/05 12:27:14;;;;;;;;;;;11.60;99.90;;;;;;5064535;28;19923;-76
2022/11/05 12:30:14;;;;;;;;;;;11.50;99.90;;;;;;5068389;28;19912;-77
2022/11/05 12:32:49;;;;;;;;;;;11.60;99.90;;;;;;5026772;28;20757;-76
2022/11/05 12:35:47;;;;;;;;;;;11.80;99.90;;;;;;5061029;28;19934;-76
2022/11/05 12:38:31;;;;;;;;;;;11.80;99.90;;;;;;5047525;28;19919;-76
2022/11/05 12:41:04;;;;;;;;;;;12.00;99.90;;;;;;5067899;28;19916;-76
2022/11/05 12:43:32;;;;;;;;;;;12.00;99.90;;;;;;5066584;28;19913;-76
2022/11/05 12:46:01;;;;;;;;;;;12.10;99.90;;;;;;5064018;28;20007;-76
2022/11/05 12:48:47;;;;;;;;;;;12.10;99.90;;;;;;5066250;28;19916;-77
2022/11/05 12:51:45;;;;;;;;;;;12.00;99.90;;;;;;5043063;28;19917;-76
2022/11/05 12:54:19;;;;;;;;;;;11.80;99.90;;;;;;5043634;28;19913;-76
2022/11/05 12:56:51;;;;;;;;;;;11.50;99.90;;;;;;5068021;28;19955;-77
2022/11/05 12:59:16;;;;;;;;;;;11.70;99.90;;;;;;5067546;28;19912;-78
2022/11/05 13:01:45;;;;;;;;;;;11.60;99.90;;;;;;5068018;28;19912;-76
2022/11/05 13:04:33;;;;;;;;;;;11.60;99.90;;;;;;5066592;28;19995;-77
2022/11/05 13:07:01;;;;;;;;;;;11.30;99.90;;;;;;5038171;28;19924;-76
2022/11/05 13:09:30;;;;;;;;;;;11.30;99.90;;;;;;5066704;28;19912;-76
2022/11/05 13:11:57;;;;;;;;;;;11.10;99.90;;;;;;5067734;28;19916;-76
2022/11/05 13:14:27;;;;;;;;;;;11.00;99.90;;;;;;5068001;28;19916;-76
2022/11/05 13:16:56;;;;;;;;;;;10.90;99.90;;;;;;5067934;28;19920;-76
2022/11/05 13:19:24;;;;;;;;;;;10.80;99.90;;;;;;5063257;28;19913;-76
2022/11/05 13:21:52;;;;;;;;;;;10.50;99.90;;;;;;5064668;28;19923;-76
2022/11/05 13:24:27;;;;;;;;;;;10.40;99.90;;;;;;5067881;28;19919;-76
2022/11/05 13:26:55;;;;;;;;;;;10.50;99.90;;;;;;5061571;28;19951;-76
2022/11/05 13:29:20;;;;;;;;;;;10.50;99.90;;;;;;5067177;28;19913;-76
2022/11/05 13:31:52;;;;;;;;;;;10.40;99.90;;;;;;5065922;28;19920;-76
2022/11/05 13:34:17;;;;;;;;;;;10.40;99.90;;;;;;5067844;28;19912;-77
2022/11/05 13:39:48;;;;;;;;;;;10.30;99.90;;;;;;5065348;28;19954;-76
2022/11/05 13:42:40;;;;;;;;;;;10.30;99.90;;;;;;5065784;28;19923;-77
2022/11/05 13:45:11;;;;;;;;;;;10.20;99.90;;;;;;5056750;28;20011;-76
2022/11/05 13:47:40;;;;;;;;;;;10.20;99.90;;;;;;5085135;28;19917;-76
2022/11/05 13:50:24;;;;;;;;;;;10.30;99.90;;;;;;5071785;28;19958;-76
2022/11/05 13:53:01;;;;;;;;;;;10.30;99.90;;;;;;5071738;28;19916;-77
2022/11/05 13:55:50;;;;;;;;;;;10.30;99.90;;;;;;5070116;28;20463;-76
2022/11/05 13:58:16;;;;;;;;;;;10.10;99.90;;;;;;5061977;28;19912;-76
2022/11/05 14:00:54;;;;;;;;;;;10.10;99.90;;;;;;5069675;28;19919;-76
2022/11/05 14:03:20;;;;;;;;;;;10.10;99.90;;;;;;5070640;28;19920;-76
2022/11/05 14:05:52;;;;;;;;;;;10.10;99.90;;;;;;5069432;28;19925;-77
2022/11/05 14:08:19;;;;;;;;;;;10.00;99.90;;;;;;5071339;28;20458;-76
2022/11/05 14:10:56;;;;;;;;;;;10.00;99.90;;;;;;5071238;28;19952;-76
2022/11/05 14:13:22;;;;;;;;;;;10.00;99.90;;;;;;5068334;28;19947;-77
2022/11/05 14:16:00;;;;;;;;;;;10.10;99.90;;;;;;5071046;28;20009;-76
2022/11/05 14:18:35;;;;;;;;;;;10.00;99.90;;;;;;5066366;28;20465;-76
2022/11/05 14:21:02;;;;;;;;;;;10.00;99.90;;;;;;5071217;28;20050;-76
2022/11/05 14:23:47;;;;;;;;;;;10.10;99.90;;;;;;5071056;28;19918;-76
2022/11/05 14:26:14;;;;;;;;;;;10.10;99.90;;;;;;5064862;28;19913;-75
2022/11/05 14:28:43;;;;;;;;;;;10.10;99.90;;;;;;5070433;28;19969;-76
2022/11/05 14:31:17;;;;;;;;;;;10.00;99.90;;;;;;5066722;28;19913;-76
2022/11/05 14:33:58;;;;;;;;;;;10.00;99.90;;;;;;5071413;28;19934;-76
2022/11/05 14:36:23;;;;;;;;;;;9.90;99.90;;;;;;5067793;28;19917;-77
2022/11/05 14:38:53;;;;;;;;;;;9.90;99.90;;;;;;5071243;28;19919;-76
2022/11/05 14:41:19;;;;;;;;;;;9.90;99.90;;;;;;5068523;28;19912;-75
2022/11/05 14:43:57;;;;;;;;;;;9.80;99.90;;;;;;5070977;28;19916;-76
2022/11/05 14:46:23;;;;;;;;;;;9.80;99.90;;;;;;5068946;28;19912;-76
2022/11/05 14:48:48;;;;;;;;;;;9.90;99.90;;;;;;5061883;28;20363;-76
2022/11/05 14:51:28;;;;;;;;;;;9.80;99.90;;;;;;5067443;28;19912;-75
2022/11/05 14:54:17;;;;;;;;;;;9.80;99.90;;;;;;5071000;28;19923;-76
2022/11/05 14:56:45;;;;;;;;;;;9.70;99.90;;;;;;5058684;28;19916;-75
2022/11/05 14:59:34;;;;;;;;;;;9.80;99.90;;;;;;5070297;28;19940;-76
2022/11/05 15:01:59;;;;;;;;;;;9.70;99.90;;;;;;5063255;28;19920;-75
2022/11/05 15:04:26;;;;;;;;;;;9.80;99.90;;;;;;5069056;28;19932;-75
2022/11/05 15:07:01;;;;;;;;;;;9.80;99.90;;;;;;5069355;28;20023;-76
2022/11/05 15:09:47;;;;;;;;;;;9.70;99.90;;;;;;5082752;28;19927;-76
2022/11/05 15:12:16;;;;;;;;;;;9.60;99.90;;;;;;5068372;28;20446;-76
2022/11/05 15:14:53;;;;;;;;;;;9.60;99.90;;;;;;5068886;28;19913;-75
2022/11/05 15:17:32;;;;;;;;;;;9.50;99.90;;;;;;5068144;28;19912;-75
2022/11/05 15:20:07;;;;;;;;;;;9.50;99.90;;;;;;5064383;28;19913;-76
2022/11/05 15:22:43;;;;;;;;;;;9.50;99.90;;;;;;5069693;28;19919;-76
2022/11/05 15:25:35;;;;;;;;;;;9.50;99.90;;;;;;5069711;28;19987;-76